createdAt,value
2022-09-07T00:03:37.964Z,100722.71
2022-09-07T00:08:41.383Z,100715.86
2022-09-07T00:13:45.321Z,100714.37
2022-09-07T00:23:05.685Z,100704.60
2022-09-07T00:28:08.378Z,100699.27
2022-09-07T00:33:10.705Z,100699.85
2022-09-07T00:38:13.035Z,100694.61
2022-09-07T00:43:27.322Z,100695.77
2022-09-07T00:48:32.801Z,100697.61
2022-09-07T00:53:38.171Z,100694.96
2022-09-07T00:58:45.170Z,100688.37
2022-09-07T01:03:48.616Z,100684.16
2022-09-07T01:08:50.941Z,100686.16
2022-09-07T01:13:53.901Z,100685.70
2022-09-07T01:18:59.110Z,100689.42
2022-09-07T01:24:15.375Z,100682.29
2022-09-07T01:29:24.698Z,100677.34
2022-09-07T01:34:27.076Z,100670.83
2022-09-07T01:39:34.573Z,100667.52
2022-09-07T01:44:36.837Z,100667.41
2022-09-07T01:49:43.268Z,100662.61
2022-09-07T01:54:48.998Z,100657.29
2022-09-07T01:59:55.584Z,100658.19
2022-09-07T02:05:03.810Z,100658.73
2022-09-07T02:10:10.216Z,100660.84
2022-09-07T02:15:17.271Z,100657.77
2022-09-07T02:20:22.980Z,100655.14
2022-09-07T02:25:28.942Z,100649.92
2022-09-07T02:30:31.249Z,100649.50
2022-09-07T02:35:34.262Z,100646.64
2022-09-07T02:40:36.552Z,100642.54
2022-09-07T02:45:40.814Z,100643.63
2022-09-07T02:50:49.771Z,100639.65
2022-09-07T02:55:55.135Z,100644.79
2022-09-07T03:01:00.466Z,100640.92
2022-09-07T03:06:04.837Z,100638.61
2022-09-07T03:11:07.802Z,100637.66
2022-09-07T03:16:13.126Z,100632.40
2022-09-07T03:21:15.477Z,100629.41
2022-09-07T03:26:23.862Z,100626.05
2022-09-07T03:31:26.355Z,100628.20
2022-09-07T03:36:30.653Z,100629.64
2022-09-07T03:41:33.661Z,100628.27
2022-09-07T03:46:36.014Z,100624.62
2022-09-07T03:51:38.408Z,100619.59
2022-09-07T03:56:41.226Z,100623.58
2022-09-07T04:01:43.647Z,100624.94
2022-09-07T04:06:46.333Z,100624.40
2022-09-07T04:11:48.699Z,100621.10
2022-09-07T04:16:51.118Z,100628.48
2022-09-07T04:21:53.481Z,100632.95
2022-09-07T04:26:56.482Z,100638.89
2022-09-07T04:31:58.794Z,100636.36
2022-09-07T04:37:01.089Z,100642.97
2022-09-07T04:42:03.506Z,100653.23
2022-09-07T04:47:06.204Z,100653.02
2022-09-07T04:52:08.502Z,100655.60
2022-09-07T04:57:11.415Z,100658.87
2022-09-07T05:02:13.811Z,100662.17
2022-09-07T05:07:16.232Z,100656.89
2022-09-07T05:12:18.536Z,100654.48
2022-09-07T05:17:20.873Z,100654.78
2022-09-07T05:22:24.844Z,100652.53
2022-09-07T05:27:27.198Z,100649.64
2022-09-07T05:32:29.588Z,100652.50
2022-09-07T05:37:31.954Z,100650.06
2022-09-07T05:42:35.324Z,100651.05
2022-09-07T05:47:38.052Z,100645.13
2022-09-07T05:52:40.348Z,100640.85
2022-09-07T05:57:43.185Z,100637.48
2022-09-07T06:02:45.642Z,100636.06
2022-09-07T06:07:48.428Z,100631.86
2022-09-07T06:12:50.729Z,100625.37
2022-09-07T06:17:53.739Z,100623.10
2022-09-07T06:22:56.073Z,100624.05
2022-09-07T06:27:59.469Z,100627.29
2022-09-07T06:33:02.102Z,100626.87
2022-09-07T06:38:04.395Z,100617.90
2022-09-07T06:43:06.703Z,100620.80
2022-09-07T06:48:09.000Z,100618.86
2022-09-07T06:58:33.781Z,100620.83
2022-09-07T07:03:36.612Z,100617.61
2022-09-07T07:08:39.487Z,100619.54
2022-09-07T07:13:42.831Z,100629.14
2022-09-07T07:18:45.794Z,100628.61
2022-09-07T07:23:50.025Z,100629.98
2022-09-07T07:34:00.479Z,100633.18
2022-09-07T07:39:03.670Z,100627.20
2022-09-07T07:44:06.050Z,100633.77
2022-09-07T07:49:09.043Z,100631.96
2022-09-07T07:54:11.425Z,100634.18
2022-09-07T07:59:15.939Z,100637.44
2022-09-07T08:04:18.422Z,100640.02
2022-09-07T08:09:20.793Z,100635.61
2022-09-07T08:14:23.188Z,100631.02
2022-09-07T08:19:25.475Z,100624.17
2022-09-07T08:24:27.759Z,100629.21
2022-09-07T08:29:33.813Z,100626.12
2022-09-07T08:34:37.662Z,100629.20
2022-09-07T08:39:40.857Z,100628.23
2022-09-07T08:44:43.175Z,100623.27
2022-09-07T08:49:48.660Z,100620.84
2022-09-07T08:54:54.021Z,100616.98
2022-09-07T08:59:59.257Z,100620.14
2022-09-07T09:05:18.259Z,100615.13
2022-09-07T09:10:31.092Z,100599.95
2022-09-07T09:15:42.458Z,100595.61
2022-09-07T09:20:47.713Z,100587.86
2022-09-07T09:25:52.959Z,100585.84
2022-09-07T09:30:55.334Z,100588.59
2022-09-07T09:35:59.645Z,100586.45
2022-09-07T09:41:05.960Z,100582.84
2022-09-07T09:46:18.944Z,100582.30
2022-09-07T09:56:45.864Z,100573.31
2022-09-07T10:07:14.557Z,100570.12
2022-09-07T10:12:19.829Z,100571.48
2022-09-07T10:17:27.471Z,100561.45
2022-09-07T10:22:32.925Z,100555.58
2022-09-07T10:27:36.854Z,100550.84
2022-09-07T10:32:42.104Z,100547.59
2022-09-07T10:37:47.370Z,100545.96
2022-09-07T10:48:28.860Z,100540.95
2022-09-07T10:53:41.313Z,100535.70
2022-09-07T11:04:09.733Z,100526.13
2022-09-07T11:09:16.669Z,100523.83
2022-09-07T11:14:22.199Z,100516.85
2022-09-07T11:19:37.288Z,100520.99
2022-09-07T11:24:45.243Z,100512.42
2022-09-07T11:29:50.589Z,100508.52
2022-09-07T11:34:57.363Z,100505.14
2022-09-07T11:40:02.687Z,100505.48
2022-09-07T11:45:12.846Z,100498.89
2022-09-07T11:50:16.509Z,100493.27
2022-09-07T11:55:23.793Z,100493.02
2022-09-07T12:00:33.101Z,100490.94
2022-09-07T12:05:38.362Z,100491.67
2022-09-07T12:10:42.907Z,100494.20
2022-09-07T12:15:52.443Z,100490.20
2022-09-07T12:20:54.853Z,100483.53
2022-09-07T12:26:17.127Z,100480.50
2022-09-07T12:31:40.751Z,100475.86
2022-09-07T12:36:58.987Z,100468.04
2022-09-07T12:47:29.550Z,100475.73
2022-09-07T12:52:31.807Z,100472.41
2022-09-07T12:57:41.972Z,100474.67
2022-09-07T13:02:56.763Z,100469.63
2022-09-07T13:08:08.826Z,100462.61
2022-09-07T13:13:14.678Z,100458.68
2022-09-07T13:18:20.289Z,100453.78
2022-09-07T13:23:24.117Z,100444.11
2022-09-07T13:28:31.670Z,100435.94
2022-09-07T13:33:34.070Z,100433.64
2022-09-07T13:38:36.720Z,100430.90
2022-09-07T13:43:40.055Z,100425.98
2022-09-07T13:48:49.002Z,100422.16
2022-09-07T13:53:52.283Z,100418.48
2022-09-07T13:58:55.002Z,100418.11
2022-09-07T14:04:07.586Z,100418.91
2022-09-07T14:09:12.869Z,100414.84
2022-09-07T14:14:17.886Z,100413.87
2022-09-07T14:19:24.023Z,100405.19
2022-09-07T14:24:28.674Z,100403.90
2022-09-07T14:29:32.286Z,100395.95
2022-09-07T14:34:35.985Z,100392.66
2022-09-07T14:39:39.586Z,100392.13
2022-09-07T14:44:43.095Z,100391.36
2022-09-07T14:49:49.196Z,100381.05
2022-09-07T14:54:52.575Z,100375.14
2022-09-07T14:59:57.174Z,100368.19
2022-09-07T15:05:02.588Z,100362.02
2022-09-07T15:10:08.362Z,100359.61
2022-09-07T15:15:12.414Z,100357.16
2022-09-07T15:20:17.815Z,100349.91
2022-09-07T15:25:20.131Z,100350.06
2022-09-07T15:30:22.668Z,100351.14
2022-09-07T15:35:25.425Z,100346.27
2022-09-07T15:40:28.596Z,100347.74
2022-09-07T15:45:30.938Z,100346.40
2022-09-07T15:50:33.552Z,100345.42
2022-09-07T15:55:37.207Z,100339.13
2022-09-07T16:00:39.671Z,100335.27
2022-09-07T16:05:43.978Z,100336.96
2022-09-07T16:10:53.612Z,100333.59
2022-09-07T16:15:59.904Z,100324.58
2022-09-07T16:21:04.606Z,100329.65
2022-09-07T16:26:08.125Z,100331.27
2022-09-07T16:31:16.241Z,100328.52
2022-09-07T16:36:19.248Z,100324.56
2022-09-07T16:41:24.268Z,100323.41
2022-09-07T16:46:28.267Z,100318.30
2022-09-07T16:51:30.616Z,100324.59
2022-09-07T16:56:38.309Z,100323.47
2022-09-07T17:01:41.545Z,100321.14
2022-09-07T17:06:44.467Z,100318.79
2022-09-07T17:11:46.794Z,100317.42
2022-09-07T17:16:49.198Z,100324.34
2022-09-07T17:21:53.539Z,100325.19
2022-09-07T17:26:55.847Z,100330.19
2022-09-07T17:37:21.480Z,100329.19
2022-09-07T17:42:26.313Z,100344.44
2022-09-07T17:47:50.178Z,100341.98
2022-09-07T17:52:53.164Z,100342.91
2022-09-07T17:57:55.560Z,100350.55
2022-09-07T18:02:58.947Z,100354.83
2022-09-07T18:08:01.512Z,100355.39
2022-09-07T18:13:03.907Z,100355.64
2022-09-07T18:18:06.899Z,100351.98
2022-09-07T18:23:10.399Z,100353.51
2022-09-07T18:33:35.766Z,100351.77
2022-09-07T18:38:38.099Z,100354.89
2022-09-07T18:43:41.755Z,100352.48
2022-09-07T18:48:44.144Z,100357.41
2022-09-07T18:53:47.104Z,100357.79
2022-09-07T18:58:54.456Z,100356.45
2022-09-07T19:03:57.125Z,100356.86
2022-09-07T19:08:59.756Z,100349.58
2022-09-07T19:14:04.795Z,100341.75
2022-09-07T19:19:07.669Z,100341.77
2022-09-07T19:24:12.787Z,100344.54
2022-09-07T19:29:17.066Z,100350.17
2022-09-07T19:34:20.281Z,100358.52
2022-09-07T19:39:22.616Z,100356.71
2022-09-07T19:44:24.983Z,100355.36
2022-09-07T19:49:27.617Z,100361.81
2022-09-07T19:54:29.916Z,100368.77
2022-09-07T19:59:32.258Z,100369.59
2022-09-07T20:04:35.709Z,100367.44
2022-09-07T20:09:37.996Z,100368.60
2022-09-07T20:14:40.286Z,100374.83
2022-09-07T20:19:42.607Z,100375.11
2022-09-07T20:24:44.946Z,100371.04
2022-09-07T20:29:47.224Z,100371.64
2022-09-07T20:34:50.423Z,100364.83
2022-09-07T20:39:52.827Z,100363.77
2022-09-07T20:44:55.347Z,100362.36
2022-09-07T20:49:57.645Z,100361.77
2022-09-07T20:54:59.946Z,100371.23
2022-09-07T21:00:02.425Z,100375.00
2022-09-07T21:05:05.011Z,100373.05
2022-09-07T21:10:07.741Z,100372.11
2022-09-07T21:15:10.157Z,100372.65
2022-09-07T21:20:12.443Z,100372.92
2022-09-07T21:25:15.624Z,100380.08
2022-09-07T21:30:18.004Z,100378.31
2022-09-07T21:35:20.391Z,100377.52
2022-09-07T21:40:24.491Z,100379.35
2022-09-07T21:45:26.792Z,100382.32
2022-09-07T21:50:29.924Z,100377.08
2022-09-07T21:55:32.279Z,100379.48
2022-09-07T22:00:34.664Z,100376.33
2022-09-07T22:05:37.421Z,100378.79
2022-09-07T22:10:39.797Z,100382.09
2022-09-07T22:15:42.429Z,100380.02
2022-09-07T22:20:44.804Z,100377.70
2022-09-07T22:25:50.091Z,100372.10
2022-09-07T22:30:54.600Z,100375.13
2022-09-07T22:36:10.724Z,100368.92
2022-09-07T22:41:15.181Z,100371.90
2022-09-07T22:46:18.801Z,100375.65
2022-09-07T22:51:21.852Z,100370.20
2022-09-07T22:56:25.621Z,100369.33
2022-09-07T23:01:29.310Z,100370.38
2022-09-07T23:06:33.465Z,100377.30
2022-09-07T23:11:36.213Z,100366.27
2022-09-07T23:16:38.991Z,100357.39
2022-09-07T23:21:41.880Z,100356.88
2022-09-07T23:26:44.531Z,100347.55
2022-09-07T23:31:47.959Z,100346.20
2022-09-07T23:36:50.810Z,100348.42
2022-09-07T23:41:53.513Z,100341.38
2022-09-07T23:46:55.862Z,100333.30
2022-09-07T23:51:58.156Z,100327.71
2022-09-07T23:57:00.465Z,100326.96
